Inuvik Mike Zubko Airport
CYEV : now visible

Airfield :











YOU CAN JOIN US ON...

 
LOGIN :

Register | Disclaimer

   EN    FR    IT 

 









Legend :    VFR   Marginal VFR   IFR   Intensive IFR   Very Intensive IFR
Visi :
Ceiling :
>= 8 km
>= 3000ft
5 to 8 km
1000 to 3000 ft
1500m to 5 km
500 to 1000 ft
800 to 1500m
200 to 500 ft
< 800m
< 200 ft
Symbols :   Thunderstorms  Fog  Heavy snow  Heavy precipitations  Wind > 20 kt






- Airport Elevation : 224 ft
- IATA code : YEV


CYEV - Inuvik Mike Zubko

CURRENT METAR :
  • 090000Z 06004KT 15SM FEW080 FEW210 M03/M15 A2988 RMK AC1CI2 AC TR SLP126

EXPIRED METARs :
  • 082300Z 05006KT 15SM FEW080 FEW210 M04/M14 A2989 RMK AC1CI2 AC TR SLP130
  • 082200Z 07006KT 15SM FEW210 M04/M16 A2990 RMK CI2 SLP134

TAF TAF CYEV
Valid from the 09 at 01:00 until the 09 at 13:00 UTC


090038Z 0901/0913 06005KT P6SM FEW080 FEW210
BECMG 0907/0909 31005KT RMK NXT FCST BY 090700Z



MET'MAP, your aeronautical weather chart ! - Copyright ORBIFLY December 2007 - Disclaimer

ORBIFLY MET'MAP TEAM :

Programming & Development : Alexandra Zaïnal
Concept & original design : Baudouin d'Aumeries
Assistance for programming : Marc-Olivier Méhu
Technical & hardware support : Manuel Goepfert

Contact : metmap@orbifly.com




SOURCES & CREDITS :

   NOAA       Earth
Advisory